Time;durP1;ratioP1;P1;durP2;ratioP2;P2;SDS_P1;SDS_P2;PMS_P1;PMS_P2;Temp;Humidity;BMP_temperature;BMP_pressure;BME280_temperature;BME280_humidity;BME280_pressure;Samples;Min_cycle;Max_cycle;Signal;HPM_P1;HPM_P2
2022/06/30 00:00:12;;;;;;;;;;;16.90;99.90;;;;;;4146218;28;20123;-43
2022/06/30 00:02:32;;;;;;;1.30;0.65;;;17.00;99.90;;;;;;4150993;28;19947;-43
2022/06/30 00:04:54;;;;;;;5.53;0.70;;;17.00;99.90;;;;;;4146004;28;20052;-43
2022/06/30 00:07:15;;;;;;;0.95;0.70;;;16.90;99.90;;;;;;4149003;28;20484;-42
2022/06/30 00:09:36;;;;;;;1.15;0.73;;;17.00;99.90;;;;;;4155763;28;20560;-45
2022/06/30 00:11:57;;;;;;;0.70;0.70;;;16.90;99.90;;;;;;4159645;28;20060;-43
2022/06/30 00:14:18;;;;;;;2.30;0.70;;;16.80;99.90;;;;;;4149341;28;20433;-42
2022/06/30 00:16:39;;;;;;;0.90;0.90;;;16.70;99.90;;;;;;4148160;28;20123;-43
2022/06/30 00:19:00;;;;;;;0.70;0.70;;;16.70;99.90;;;;;;4148898;28;20136;-44
2022/06/30 00:21:21;;;;;;;1.75;0.70;;;16.50;99.90;;;;;;4149284;28;20096;-43
2022/06/30 00:23:45;;;;;;;2.00;1.10;;;16.50;99.90;;;;;;4149009;28;20462;-44
2022/06/30 00:26:06;;;;;;;0.60;0.60;;;16.50;99.90;;;;;;4148823;28;20057;-43
2022/06/30 00:28:27;;;;;;;0.98;0.80;;;16.60;99.90;;;;;;4148992;28;20076;-44
2022/06/30 00:30:48;;;;;;;4.60;1.10;;;16.60;99.90;;;;;;4149154;28;20157;-45
2022/06/30 00:33:09;;;;;;;0.80;0.70;;;16.60;99.90;;;;;;4149048;28;20421;-45
2022/06/30 00:35:30;;;;;;;0.90;0.80;;;16.50;99.90;;;;;;4148890;28;20525;-43
2022/06/30 00:37:50;;;;;;;1.05;0.80;;;16.40;99.90;;;;;;4149105;28;20052;-44
2022/06/30 00:40:11;;;;;;;0.90;0.70;;;16.20;99.90;;;;;;4149060;28;20052;-43
2022/06/30 00:42:32;;;;;;;0.75;0.75;;;16.10;99.90;;;;;;4148690;28;20064;-43
2022/06/30 00:44:53;;;;;;;0.70;0.70;;;15.90;99.90;;;;;;4148615;28;20100;-43
2022/06/30 00:47:14;;;;;;;0.80;0.80;;;15.80;99.90;;;;;;4148481;28;20096;-43
2022/06/30 00:49:37;;;;;;;0.70;0.70;;;15.90;99.90;;;;;;4152985;28;20052;-43
2022/06/30 00:52:01;;;;;;;0.80;0.80;;;16.00;99.90;;;;;;4150378;28;20048;-44
2022/06/30 00:54:24;;;;;;;0.95;0.80;;;16.00;99.90;;;;;;4148887;28;20052;-43
2022/06/30 00:56:47;;;;;;;2.95;0.80;;;15.90;99.90;;;;;;4148413;28;20092;-43
2022/06/30 00:59:09;;;;;;;0.88;0.75;;;16.00;99.90;;;;;;4147801;28;20120;-43
2022/06/30 01:01:32;;;;;;;2.07;0.80;;;16.00;99.90;;;;;;4148341;28;20583;-43
2022/06/30 01:03:55;;;;;;;0.75;0.75;;;15.90;99.90;;;;;;4148072;28;20412;-44
2022/06/30 01:06:16;;;;;;;;;;;15.80;99.90;;;;;;4148929;28;20055;-44
2022/06/30 01:08:37;;;;;;;1.35;0.70;;;15.70;99.90;;;;;;4162275;28;19971;-44
2022/06/30 01:13:39;;;;;;;0.80;0.80;;;15.70;99.90;;;;;;4155502;28;20417;-43
2022/06/30 01:15:59;;;;;;;0.80;0.80;;;15.60;99.90;;;;;;4148189;28;20064;-43
2022/06/30 01:18:20;;;;;;;1.13;0.70;;;15.50;99.90;;;;;;4160681;28;20130;-43
2022/06/30 01:20:41;;;;;;;1.85;0.77;;;15.60;99.90;;;;;;4149753;28;20060;-43
2022/06/30 01:23:04;;;;;;;0.82;0.82;;;15.70;99.90;;;;;;4147937;28;20064;-43
2022/06/30 01:25:25;;;;;;;0.80;0.80;;;15.60;99.90;;;;;;4150887;28;20099;-43
2022/06/30 01:27:46;;;;;;;0.80;0.80;;;15.50;99.90;;;;;;4147953;28;20193;-44
2022/06/30 01:30:07;;;;;;;1.00;0.80;;;15.50;99.90;;;;;;4147803;28;20057;-43
2022/06/30 01:32:29;;;;;;;0.80;0.80;;;15.40;99.90;;;;;;4148181;28;20203;-44
2022/06/30 01:34:50;;;;;;;0.80;0.80;;;15.30;99.90;;;;;;4148122;28;20413;-42
2022/06/30 01:37:11;;;;;;;2.25;0.85;;;15.20;99.90;;;;;;4148009;28;20069;-44
2022/06/30 01:39:32;;;;;;;0.90;0.80;;;15.20;99.90;;;;;;4147909;28;20129;-43
2022/06/30 01:41:54;;;;;;;2.15;0.80;;;15.10;99.90;;;;;;4148040;28;20168;-43
2022/06/30 01:44:14;;;;;;;1.23;1.13;;;15.20;99.90;;;;;;4159847;28;20051;-43
2022/06/30 01:46:48;;;;;;;1.38;0.70;;;15.30;99.90;;;;;;4147839;28;20092;-44
2022/06/30 01:49:09;;;;;;;0.77;0.77;;;15.20;99.90;;;;;;4148273;28;20092;-42
2022/06/30 01:51:30;;;;;;;1.70;0.88;;;15.00;99.90;;;;;;4158372;28;20461;-43
2022/06/30 01:53:51;;;;;;;0.93;0.70;;;14.90;99.90;;;;;;4147705;28;20092;-44
2022/06/30 01:56:11;;;;;;;0.85;0.85;;;14.80;99.90;;;;;;4147657;28;20056;-43
2022/06/30 01:58:32;;;;;;;1.30;1.00;;;14.60;99.90;;;;;;4147401;28;20104;-42
2022/06/30 02:00:53;;;;;;;1.02;0.80;;;14.40;99.90;;;;;;4147670;28;20137;-43
2022/06/30 02:03:14;;;;;;;1.13;1.02;;;14.60;99.90;;;;;;4147479;28;20068;-42
2022/06/30 02:05:36;;;;;;;0.80;0.80;;;14.70;99.90;;;;;;4147842;28;20125;-44
2022/06/30 02:07:57;;;;;;;0.80;0.80;;;14.60;99.90;;;;;;4155972;28;20111;-44
2022/06/30 02:10:20;;;;;;;0.90;0.90;;;14.30;99.90;;;;;;4161077;28;20123;-44
2022/06/30 02:12:47;;;;;;;0.80;0.80;;;14.20;99.90;;;;;;4147749;28;20057;-43
2022/06/30 02:15:10;;;;;;;0.70;0.70;;;14.20;99.90;;;;;;4147311;28;20060;-44
2022/06/30 02:17:31;;;;;;;0.80;0.80;;;14.20;99.90;;;;;;4153404;28;20147;-43
2022/06/30 02:19:52;;;;;;;2.17;1.27;;;14.40;99.90;;;;;;4160403;28;20507;-43
2022/06/30 02:22:13;;;;;;;1.73;0.80;;;14.20;99.90;;;;;;4155811;28;20068;-44
2022/06/30 02:24:34;;;;;;;1.25;0.75;;;14.20;99.90;;;;;;4148270;28;20133;-43
2022/06/30 02:26:54;;;;;;;1.17;0.80;;;14.00;99.90;;;;;;4147017;28;20057;-43
2022/06/30 02:29:15;;;;;;;4.95;1.05;;;14.00;99.90;;;;;;4146821;28;20084;-43
2022/06/30 02:31:36;;;;;;;1.15;1.10;;;13.90;99.90;;;;;;4147091;28;20439;-43
2022/06/30 02:33:57;;;;;;;1.98;0.90;;;13.70;99.90;;;;;;4146525;28;20060;-42
2022/06/30 02:36:17;;;;;;;1.42;1.33;;;13.80;99.90;;;;;;4146662;28;20056;-43
2022/06/30 02:38:38;;;;;;;0.80;0.80;;;13.70;99.90;;;;;;4147051;28;20069;-44
2022/06/30 02:40:58;;;;;;;0.80;0.80;;;13.90;99.90;;;;;;4147293;28;20056;-42
2022/06/30 02:43:19;;;;;;;1.58;1.00;;;13.80;99.90;;;;;;4151691;28;20067;-42
2022/06/30 02:45:41;;;;;;;0.80;0.80;;;13.70;99.90;;;;;;4158121;28;20052;-43
2022/06/30 02:48:02;;;;;;;1.00;1.00;;;13.60;99.90;;;;;;4146686;28;20081;-43
2022/06/30 02:50:23;;;;;;;0.90;0.90;;;13.60;99.90;;;;;;4157529;28;20048;-43
2022/06/30 02:52:44;;;;;;;2.15;1.77;;;13.60;99.90;;;;;;4152518;28;20084;-43
2022/06/30 02:55:05;;;;;;;0.90;0.90;;;13.70;99.90;;;;;;4146713;28;20053;-43
2022/06/30 02:57:28;;;;;;;1.00;1.00;;;13.50;99.90;;;;;;4146924;28;20104;-43
2022/06/30 02:59:49;;;;;;;1.20;1.08;;;13.30;99.90;;;;;;4146817;28;20414;-44
2022/06/30 03:02:10;;;;;;;1.42;0.82;;;13.30;99.90;;;;;;4146415;28;20076;-44
2022/06/30 03:04:30;;;;;;;0.90;0.90;;;13.20;99.90;;;;;;4146457;28;20108;-44
2022/06/30 03:06:51;;;;;;;0.88;0.88;;;13.10;99.90;;;;;;4145740;28;20104;-43
2022/06/30 03:09:12;;;;;;;0.80;0.80;;;13.30;99.90;;;;;;4146370;28;20092;-44
2022/06/30 03:11:33;;;;;;;2.40;1.30;;;13.40;99.90;;;;;;4153854;28;20057;-43
2022/06/30 03:14:11;;;;;;;0.90;0.80;;;13.50;99.90;;;;;;4159387;28;20156;-44
2022/06/30 03:16:31;;;;;;;2.55;0.80;;;13.60;99.90;;;;;;4146512;28;20132;-44
2022/06/30 03:18:52;;;;;;;0.70;0.70;;;13.60;99.90;;;;;;4157557;28;20433;-44
2022/06/30 03:21:16;;;;;;;0.80;0.80;;;13.60;99.90;;;;;;4154095;28;20057;-43
2022/06/30 03:23:39;;;;;;;0.80;0.77;;;13.60;99.90;;;;;;4146222;28;20485;-45
2022/06/30 03:26:00;;;;;;;1.90;0.80;;;13.60;99.90;;;;;;4146354;28;20054;-42
2022/06/30 03:28:21;;;;;;;0.90;0.90;;;13.50;99.90;;;;;;4146215;28;20056;-43
2022/06/30 03:30:45;;;;;;;0.80;0.80;;;13.50;99.90;;;;;;4146108;28;20133;-43
2022/06/30 03:33:05;;;;;;;1.75;0.80;;;13.40;99.90;;;;;;4146050;28;20579;-43
2022/06/30 03:35:26;;;;;;;1.00;1.00;;;13.50;99.90;;;;;;4146362;28;20052;-43
2022/06/30 03:37:47;;;;;;;1.80;0.85;;;13.40;99.90;;;;;;4146409;28;20417;-43
2022/06/30 03:40:08;;;;;;;1.40;1.00;;;13.20;99.90;;;;;;4146138;28;20081;-45
2022/06/30 03:42:29;;;;;;;3.10;0.93;;;13.00;99.90;;;;;;4146310;28;20151;-43
2022/06/30 03:44:50;;;;;;;0.90;0.90;;;12.90;99.90;;;;;;4145681;28;20100;-44
2022/06/30 03:47:11;;;;;;;1.38;0.90;;;12.80;99.90;;;;;;4146332;28;20118;-43
2022/06/30 03:49:32;;;;;;;1.05;1.05;;;12.90;99.90;;;;;;4149520;28;20060;-44
2022/06/30 03:51:53;;;;;;;0.90;0.90;;;12.90;99.90;;;;;;4162579;28;20048;-43
2022/06/30 03:54:13;;;;;;;3.10;1.20;;;12.90;99.90;;;;;;4146112;28;20052;-43
2022/06/30 03:56:34;;;;;;;0.90;0.90;;;12.80;99.90;;;;;;4146268;28;20129;-44
2022/06/30 03:58:55;;;;;;;1.40;0.90;;;12.80;99.90;;;;;;4145841;28;20373;-43
2022/06/30 04:01:16;;;;;;;1.35;0.85;;;12.70;99.90;;;;;;4146146;28;20060;-43
2022/06/30 04:03:37;;;;;;;0.88;0.88;;;12.60;99.90;;;;;;4162346;28;20119;-43
2022/06/30 04:05:58;;;;;;;3.40;1.23;;;12.50;99.90;;;;;;4152761;28;20520;-44
2022/06/30 04:08:18;;;;;;;0.90;0.90;;;12.40;99.90;;;;;;4154805;28;20065;-42
2022/06/30 04:10:40;;;;;;;2.22;0.90;;;12.40;99.90;;;;;;4146299;28;20062;-43
2022/06/30 04:13:00;;;;;;;1.00;0.93;;;12.50;99.90;;;;;;4147138;28;20092;-45
2022/06/30 04:15:21;;;;;;;3.45;1.05;;;12.50;99.90;;;;;;4151426;28;20057;-42
2022/06/30 04:17:42;;;;;;;0.90;0.90;;;12.50;99.90;;;;;;4151837;28;20103;-45
2022/06/30 04:20:05;;;;;;;1.05;0.95;;;12.50;99.90;;;;;;4145605;28;20119;-45
2022/06/30 04:22:26;;;;;;;1.10;1.10;;;12.50;99.90;;;;;;4145788;28;20187;-43
2022/06/30 04:24:46;;;;;;;1.45;0.90;;;12.70;99.90;;;;;;4145209;28;20060;-43
2022/06/30 04:27:07;;;;;;;2.05;1.00;;;12.60;99.90;;;;;;4145896;28;20060;-44
2022/06/30 04:29:28;;;;;;;3.72;1.30;;;12.60;99.90;;;;;;4145741;28;20138;-43
2022/06/30 04:34:28;;;;;;;4.30;2.45;;;12.80;99.90;;;;;;4145564;28;20410;-43
2022/06/30 04:36:48;;;;;;;4.75;0.93;;;12.80;99.90;;;;;;4145277;28;20277;-43
2022/06/30 04:39:09;;;;;;;4.80;1.20;;;12.80;99.90;;;;;;4145402;28;20437;-43
2022/06/30 04:41:30;;;;;;;1.98;1.10;;;12.90;99.90;;;;;;4145488;28;20108;-44
2022/06/30 04:43:52;;;;;;;4.93;1.83;;;13.00;99.90;;;;;;4148200;28;20104;-43
2022/06/30 04:46:12;;;;;;;3.92;1.50;;;12.80;99.90;;;;;;4145446;28;20048;-43
2022/06/30 04:48:33;;;;;;;2.65;1.10;;;12.90;99.90;;;;;;4145340;28;20596;-43
2022/06/30 04:50:54;;;;;;;2.53;1.40;;;12.90;99.90;;;;;;4148427;28;20096;-45
2022/06/30 04:53:15;;;;;;;1.35;1.25;;;12.80;99.90;;;;;;4145332;28;20081;-43
2022/06/30 04:55:35;;;;;;;4.05;1.13;;;12.90;99.90;;;;;;4146325;28;20076;-43
2022/06/30 04:57:56;;;;;;;0.90;0.90;;;13.00;99.90;;;;;;4148334;28;20057;-43
2022/06/30 05:00:17;;;;;;;3.30;0.90;;;12.90;99.90;;;;;;4148249;28;20052;-43
2022/06/30 05:02:38;;;;;;;3.10;0.90;;;12.90;99.90;;;;;;4148655;28;20096;-45
2022/06/30 05:04:59;;;;;;;1.42;1.00;;;12.90;99.90;;;;;;4148262;28;20141;-44
2022/06/30 05:07:21;;;;;;;0.90;0.90;;;12.90;99.90;;;;;;4151648;28;20104;-45
2022/06/30 05:09:41;;;;;;;1.00;1.00;;;12.90;99.90;;;;;;4155476;28;20064;-43
2022/06/30 05:12:03;;;;;;;1.38;0.88;;;13.20;99.90;;;;;;4157626;28;20052;-43
2022/06/30 05:14:24;;;;;;;1.10;0.90;;;13.30;99.90;;;;;;4148318;28;20057;-43
2022/06/30 05:16:44;;;;;;;1.63;1.52;;;13.40;99.90;;;;;;4148165;28;20056;-42
2022/06/30 05:19:05;;;;;;;0.80;0.80;;;13.40;99.90;;;;;;4147831;28;20688;-43
2022/06/30 05:21:26;;;;;;;1.15;0.80;;;13.50;99.90;;;;;;4148125;28;20520;-44
2022/06/30 05:26:28;;;;;;;1.00;1.00;;;13.50;99.90;;;;;;4147458;28;20057;-43
2022/06/30 05:26:30;;;;;;;1.85;0.80;;;13.50;99.90;;;;;;4148084;28;20145;-43
2022/06/30 05:28:51;;;;;;;1.25;1.15;;;13.60;99.90;;;;;;4149781;28;20040;-44
2022/06/30 05:31:14;;;;;;;0.80;0.80;;;13.60;99.90;;;;;;4154678;28;20440;-43
2022/06/30 05:33:35;;;;;;;1.17;0.80;;;13.70;99.90;;;;;;4164362;28;20056;-43
2022/06/30 05:35:58;;;;;;;1.38;0.80;;;13.70;99.90;;;;;;4149091;28;20425;-44
2022/06/30 05:38:20;;;;;;;1.70;0.90;;;13.80;99.90;;;;;;4147961;28;20611;-43
2022/06/30 05:40:41;;;;;;;3.33;0.80;;;13.80;99.90;;;;;;4152502;28;20104;-42
2022/06/30 05:43:02;;;;;;;1.85;0.70;;;13.90;99.90;;;;;;4152104;28;20523;-43
2022/06/30 05:45:24;;;;;;;0.93;0.65;;;14.00;99.90;;;;;;4148603;28;20040;-42
2022/06/30 05:47:50;;;;;;;3.10;0.70;;;14.10;99.90;;;;;;4148920;28;20053;-42
2022/06/30 05:50:11;;;;;;;0.85;0.85;;;14.30;99.90;;;;;;4153584;28;20099;-43
2022/06/30 05:52:32;;;;;;;0.88;0.70;;;14.40;99.90;;;;;;4157700;28;20056;-43
2022/06/30 05:54:53;;;;;;;0.70;0.70;;;14.50;99.90;;;;;;4147808;28;20103;-42
2022/06/30 05:57:14;;;;;;;0.70;0.70;;;14.60;99.90;;;;;;4147439;28;20565;-43
2022/06/30 05:59:35;;;;;;;1.70;0.70;;;14.80;99.90;;;;;;4156525;28;20083;-42
2022/06/30 06:01:55;;;;;;;0.70;0.70;;;15.10;99.90;;;;;;4163754;28;20125;-44
2022/06/30 06:04:16;;;;;;;0.73;0.60;;;15.30;99.90;;;;;;4151926;28;20074;-42
2022/06/30 06:06:38;;;;;;;2.85;0.80;;;15.40;99.90;;;;;;4150188;28;20045;-44
2022/06/30 06:08:59;;;;;;;1.30;0.65;;;15.60;99.90;;;;;;4147109;28;20444;-43
2022/06/30 06:11:21;;;;;;;1.85;0.60;;;15.90;99.90;;;;;;4152843;28;20100;-42
2022/06/30 06:13:42;;;;;;;0.80;0.60;;;16.10;99.90;;;;;;4152575;28;20129;-42
2022/06/30 06:16:02;;;;;;;2.40;0.68;;;16.20;99.90;;;;;;4147244;28;20532;-43
2022/06/30 06:18:23;;;;;;;3.30;0.80;;;16.50;99.90;;;;;;4160021;28;20056;-44
2022/06/30 06:20:45;;;;;;;2.15;0.60;;;17.00;99.90;;;;;;4147262;28;20048;-43
2022/06/30 06:23:25;;;;;;;0.57;0.50;;;17.10;99.90;;;;;;4147095;28;20056;-43
2022/06/30 06:25:46;;;;;;;1.65;0.55;;;17.40;99.90;;;;;;4147072;28;20096;-43
2022/06/30 06:30:46;;;;;;;2.20;0.60;;;17.50;99.90;;;;;;4147352;28;20516;-44
2022/06/30 06:33:08;;;;;;;1.20;0.55;;;17.40;99.90;;;;;;4146635;28;20128;-45
2022/06/30 06:35:29;;;;;;;2.33;0.60;;;17.60;99.90;;;;;;4147173;28;20242;-43
2022/06/30 06:37:50;;;;;;;0.55;0.55;;;17.60;99.90;;;;;;4146930;28;20512;-43
2022/06/30 06:40:12;;;;;;;2.05;0.60;;;17.90;99.90;;;;;;4146852;28;20135;-43
2022/06/30 06:42:32;;;;;;;2.05;0.50;;;17.90;99.90;;;;;;4146797;28;20076;-44
2022/06/30 06:44:59;;;;;;;1.23;0.60;;;18.20;99.90;;;;;;4146751;28;20531;-43
2022/06/30 06:47:20;;;;;;;0.63;0.50;;;18.40;99.90;;;;;;4146812;28;20057;-43
2022/06/30 06:49:43;;;;;;;1.13;1.02;;;18.50;99.90;;;;;;4151757;28;20068;-44
2022/06/30 06:52:04;;;;;;;3.33;1.08;;;19.20;99.90;;;;;;4151699;28;20049;-44
2022/06/30 06:54:25;;;;;;;0.50;0.50;;;19.50;99.90;;;;;;4146490;28;20045;-45
2022/06/30 06:56:46;;;;;;;1.75;0.52;;;19.40;99.90;;;;;;4146979;28;20052;-46
2022/06/30 06:59:07;;;;;;;1.67;0.50;;;19.70;99.90;;;;;;4146491;28;20072;-44
2022/06/30 07:01:28;;;;;;;0.40;0.40;;;20.40;99.90;;;;;;4146546;28;20114;-44
2022/06/30 07:03:49;;;;;;;4.47;0.55;;;20.80;99.90;;;;;;4154159;28;20309;-45
2022/06/30 07:06:10;;;;;;;1.23;0.50;;;21.00;99.90;;;;;;4146728;28;20930;-44
2022/06/30 07:08:31;;;;;;;0.82;0.40;;;20.90;99.90;;;;;;4159656;28;20133;-45
2022/06/30 07:10:55;;;;;;;0.40;0.40;;;21.00;99.90;;;;;;4156075;28;20072;-43
2022/06/30 07:13:16;;;;;;;1.02;0.50;;;21.20;99.90;;;;;;4160354;28;20048;-44
2022/06/30 07:15:36;;;;;;;1.38;0.40;;;21.20;99.90;;;;;;4146315;28;20520;-45
2022/06/30 07:17:58;;;;;;;0.70;0.50;;;21.00;99.90;;;;;;4155669;28;20048;-45
2022/06/30 07:20:19;;;;;;;0.52;0.40;;;21.30;99.90;;;;;;4154523;28;20148;-51
2022/06/30 07:22:41;;;;;;;1.98;0.73;;;21.50;99.90;;;;;;4146203;28;20123;-44
2022/06/30 07:25:03;;;;;;;0.50;0.50;;;21.80;99.90;;;;;;4146347;28;20045;-43
2022/06/30 07:27:26;;;;;;;0.35;0.35;;;22.00;99.90;;;;;;4146105;28;20484;-44
2022/06/30 07:29:47;;;;;;;0.40;0.40;;;22.40;99.90;;;;;;4145853;28;20413;-44
2022/06/30 07:32:08;;;;;;;1.20;0.40;;;22.40;99.90;;;;;;4146151;28;20060;-46
2022/06/30 07:34:29;;;;;;;1.48;0.40;;;22.80;99.90;;;;;;4162684;28;20056;-44
2022/06/30 07:36:50;;;;;;;0.43;0.43;;;23.00;99.90;;;;;;4150374;28;20064;-44
2022/06/30 07:39:11;;;;;;;0.43;0.43;;;23.10;99.10;;;;;;4146011;28;20100;-44
2022/06/30 07:41:32;;;;;;;0.88;0.40;;;23.10;98.70;;;;;;4144958;28;20112;-46
2022/06/30 07:43:53;;;;;;;1.60;0.50;;;23.50;99.10;;;;;;4155376;28;20099;-44
2022/06/30 07:46:14;;;;;;;6.00;0.40;;;23.50;99.30;;;;;;4151329;28;20053;-44
2022/06/30 07:48:36;;;;;;;0.40;0.40;;;23.30;98.20;;;;;;4145804;28;20410;-44
2022/06/30 07:50:57;;;;;;;0.50;0.47;;;23.20;97.50;;;;;;4160209;28;20079;-44
2022/06/30 07:53:17;;;;;;;0.35;0.35;;;23.50;97.50;;;;;;4145956;28;20120;-44
2022/06/30 07:55:39;;;;;;;0.52;0.43;;;23.90;97.60;;;;;;4146117;28;20092;-42
2022/06/30 07:58:00;;;;;;;0.70;0.40;;;24.40;98.20;;;;;;4145619;28;20064;-43
2022/06/30 08:00:24;;;;;;;0.40;0.40;;;24.40;96.40;;;;;;4159140;28;20095;-43
2022/06/30 08:02:45;;;;;;;0.30;0.30;;;25.10;97.10;;;;;;4146459;28;20076;-44
2022/06/30 08:05:07;;;;;;;0.73;0.30;;;25.40;95.80;;;;;;4145822;28;20286;-44
2022/06/30 08:07:28;;;;;;;0.70;0.30;;;25.20;96.10;;;;;;4148939;28;20107;-43
2022/06/30 08:09:50;;;;;;;0.30;0.30;;;25.70;95.50;;;;;;4145699;28;20093;-44
2022/06/30 08:12:11;;;;;;;0.40;0.30;;;25.60;92.20;;;;;;4158150;28;20052;-44
2022/06/30 08:14:33;;;;;;;0.93;0.30;;;25.60;92.90;;;;;;4154461;28;20044;-44
2022/06/30 08:16:55;;;;;;;0.30;0.30;;;25.70;95.70;;;;;;4146072;28;20068;-44
2022/06/30 08:19:17;;;;;;;1.70;0.30;;;26.10;94.80;;;;;;4145540;28;20149;-43
2022/06/30 08:21:37;;;;;;;0.40;0.40;;;26.60;95.00;;;;;;4145654;28;20069;-43
2022/06/30 08:23:58;;;;;;;0.63;0.20;;;26.80;92.10;;;;;;4145601;28;20065;-45
2022/06/30 08:26:20;;;;;;;0.30;0.30;;;26.80;92.20;;;;;;4145580;28;20144;-43
2022/06/30 08:28:41;;;;;;;0.30;0.20;;;26.40;92.10;;;;;;4145532;28;20414;-43
2022/06/30 08:31:07;;;;;;;1.48;0.30;;;26.50;91.80;;;;;;4147157;28;20117;-44
2022/06/30 08:33:28;;;;;;;1.55;0.30;;;26.50;92.60;;;;;;4148762;28;20491;-44
2022/06/30 08:35:51;;;;;;;0.47;0.30;;;27.10;88.60;;;;;;4149088;28;20060;-45
2022/06/30 08:38:21;;;;;;;0.40;0.30;;;27.50;88.40;;;;;;4148870;28;20065;-46
2022/06/30 08:43:24;;;;;;;0.28;0.28;;;27.60;82.70;;;;;;4153606;28;20129;-44
2022/06/30 08:45:46;;;;;;;1.65;0.30;;;27.40;81.20;;;;;;4162964;28;20100;-43
2022/06/30 08:48:07;;;;;;;0.55;0.20;;;27.10;81.20;;;;;;4148572;28;20057;-45
2022/06/30 08:50:28;;;;;;;0.38;0.38;;;27.30;82.30;;;;;;4159955;28;20050;-44
2022/06/30 08:52:51;;;;;;;1.25;0.30;;;28.00;90.20;;;;;;4157021;28;20100;-44
2022/06/30 08:55:14;;;;;;;0.30;0.30;;;28.20;79.00;;;;;;4149338;28;20167;-44
2022/06/30 08:57:35;;;;;;;0.98;0.30;;;28.30;82.90;;;;;;4148848;28;20147;-44
2022/06/30 08:59:56;;;;;;;1.23;0.30;;;28.40;83.40;;;;;;4148298;28;20630;-43
2022/06/30 09:02:18;;;;;;;0.65;0.30;;;28.00;84.40;;;;;;4148375;28;20128;-45
2022/06/30 09:04:38;;;;;;;0.70;0.30;;;28.00;82.70;;;;;;4148565;28;20108;-46
2022/06/30 09:06:59;;;;;;;0.32;0.30;;;28.10;79.40;;;;;;4164892;28;20099;-45
2022/06/30 09:09:20;;;;;;;0.30;0.30;;;28.20;81.70;;;;;;4152064;28;20608;-46
2022/06/30 09:11:54;;;;;;;0.37;0.20;;;28.60;81.90;;;;;;4151817;28;20073;-44
2022/06/30 09:14:30;;;;;;;0.75;0.30;;;28.50;78.60;;;;;;4148100;28;20068;-44
2022/06/30 09:16:54;;;;;;;1.17;0.20;;;28.60;83.90;;;;;;4148592;28;20604;-44
2022/06/30 09:19:14;;;;;;;1.75;0.20;;;28.70;77.40;;;;;;4149447;28;20080;-46
2022/06/30 09:21:35;;;;;;;0.28;0.28;;;29.00;76.90;;;;;;4148063;28;20048;-44
2022/06/30 09:23:56;;;;;;;1.55;0.20;;;29.00;81.30;;;;;;4148473;28;20131;-44
2022/06/30 09:26:19;;;;;;;0.30;0.30;;;29.00;80.10;;;;;;4147971;28;20504;-44
2022/06/30 09:28:46;;;;;;;0.20;0.20;;;29.20;75.90;;;;;;4148178;28;20130;-44
2022/06/30 09:31:39;;;;;;;0.70;0.30;;;29.30;74.50;;;;;;4148099;28;20524;-44
2022/06/30 09:34:20;;;;;;;0.20;0.20;;;29.40;75.00;;;;;;4147978;28;20048;-44
2022/06/30 09:36:41;;;;;;;0.30;0.30;;;29.30;75.20;;;;;;4148078;28;20056;-43
2022/06/30 09:39:08;;;;;;;1.42;0.22;;;29.40;75.10;;;;;;4148038;28;20053;-44
2022/06/30 09:41:41;;;;;;;2.05;0.30;;;29.40;73.90;;;;;;4147462;28;20064;-44
2022/06/30 09:44:06;;;;;;;0.20;0.20;;;28.80;76.20;;;;;;4149365;28;20048;-44
2022/06/30 09:46:27;;;;;;;0.22;0.22;;;29.30;78.50;;;;;;4147419;28;20060;-45
2022/06/30 09:48:48;;;;;;;0.30;0.20;;;29.80;79.50;;;;;;4147954;28;20052;-45
2022/06/30 09:51:09;;;;;;;0.28;0.25;;;30.10;78.90;;;;;;4147527;28;20417;-45
2022/06/30 09:53:30;;;;;;;0.80;0.30;;;30.00;80.60;;;;;;4147729;28;20116;-45
2022/06/30 09:55:51;;;;;;;1.08;0.30;;;29.60;80.70;;;;;;4147357;28;20092;-44
2022/06/30 09:58:28;;;;;;;0.43;0.22;;;29.70;77.50;;;;;;4147580;28;20136;-44
2022/06/30 10:00:50;;;;;;;0.95;0.20;;;29.80;78.60;;;;;;4147626;28;20053;-46
2022/06/30 10:03:11;;;;;;;0.57;0.30;;;30.00;77.90;;;;;;4147582;28;20065;-44
2022/06/30 10:05:32;;;;;;;0.63;0.30;;;29.90;80.10;;;;;;4147139;28;20088;-43
2022/06/30 10:07:53;;;;;;;1.77;0.30;;;30.10;78.70;;;;;;4155693;28;20072;-44
2022/06/30 10:10:16;;;;;;;0.20;0.20;;;30.10;79.50;;;;;;4148679;28;20532;-43
2022/06/30 10:12:38;;;;;;;0.22;0.20;;;30.30;78.40;;;;;;4152730;28;20060;-43
2022/06/30 10:14:59;;;;;;;0.32;0.28;;;30.00;76.60;;;;;;4150791;28;20096;-44
2022/06/30 10:17:23;;;;;;;0.27;0.27;;;30.40;81.20;;;;;;4151377;28;20083;-44
2022/06/30 10:19:44;;;;;;;0.20;0.20;;;30.50;79.20;;;;;;4154003;28;20540;-44
2022/06/30 10:22:06;;;;;;;0.47;0.20;;;30.50;82.90;;;;;;4147774;28;20049;-43
2022/06/30 10:24:26;;;;;;;2.97;0.30;;;31.10;78.40;;;;;;4149556;28;20131;-43
2022/06/30 10:29:27;;;;;;;4.32;0.20;;;31.30;74.20;;;;;;4147504;28;20153;-44
2022/06/30 10:31:58;;;;;;;0.20;0.20;;;31.30;80.00;;;;;;4146936;28;20096;-43
2022/06/30 10:34:32;;;;;;;0.25;0.20;;;31.30;74.50;;;;;;4146917;28;20416;-45
2022/06/30 10:37:09;;;;;;;0.30;0.30;;;30.70;75.10;;;;;;4147026;28;20111;-45
2022/06/30 10:39:55;;;;;;;0.60;0.20;;;30.80;74.00;;;;;;4147002;28;20544;-45
2022/06/30 10:42:40;;;;;;;0.25;0.20;;;30.90;77.20;;;;;;4160862;28;20060;-44
2022/06/30 10:45:01;;;;;;;0.30;0.30;;;31.50;72.20;;;;;;4151641;28;20158;-46
2022/06/30 10:47:57;;;;;;;0.25;0.20;;;31.80;73.90;;;;;;4153143;28;20063;-44
2022/06/30 10:50:39;;;;;;;0.20;0.20;;;31.60;69.30;;;;;;4158987;28;20044;-44
2022/06/30 10:53:01;;;;;;;0.28;0.28;;;31.70;71.30;;;;;;4149975;28;20137;-44
2022/06/30 10:55:22;;;;;;;2.95;0.20;;;31.80;70.40;;;;;;4157001;28;20052;-44
2022/06/30 10:58:10;;;;;;;0.25;0.20;;;31.80;72.40;;;;;;4153356;28;20052;-46
2022/06/30 11:01:04;;;;;;;2.15;0.20;;;32.40;69.30;;;;;;4157703;28;20421;-45
2022/06/30 11:03:30;;;;;;;0.20;0.20;;;32.10;68.00;;;;;;4153939;28;20419;-44
2022/06/30 11:05:51;;;;;;;0.38;0.20;;;32.50;74.60;;;;;;4152026;28;20402;-43
2022/06/30 11:08:50;;;;;;;1.05;0.20;;;32.60;68.00;;;;;;4154663;28;20059;-44
2022/06/30 11:11:20;;;;;;;0.43;0.20;;;32.70;65.50;;;;;;4155456;28;20045;-44
2022/06/30 11:13:41;;;;;;;0.20;0.20;;;32.50;69.40;;;;;;4145728;28;20522;-45
2022/06/30 11:16:02;;;;;;;0.65;0.20;;;32.70;73.00;;;;;;4146438;28;20139;-44
2022/06/30 11:18:24;;;;;;;2.83;0.20;;;33.20;67.10;;;;;;4159986;28;20056;-44
2022/06/30 11:20:45;;;;;;;0.30;0.20;;;32.90;66.00;;;;;;4148905;28;20092;-44
2022/06/30 11:23:06;;;;;;;0.35;0.20;;;33.20;70.00;;;;;;4157874;28;20422;-43
2022/06/30 11:28:13;;;;;;;0.20;0.20;;;32.40;71.60;;;;;;4146598;28;20413;-46
2022/06/30 11:30:35;;;;;;;0.20;0.20;;;32.40;69.40;;;;;;4151609;28;20059;-44
2022/06/30 11:32:57;;;;;;;;;;;33.10;72.70;;;;;;4151602;28;20043;-45
2022/06/30 11:35:27;;;;;;;0.90;0.30;;;33.10;68.90;;;;;;4145606;28;19971;-44
2022/06/30 11:37:49;;;;;;;0.77;0.20;;;33.10;69.80;;;;;;4145922;28;20072;-44
2022/06/30 11:40:12;;;;;;;0.20;0.20;;;33.50;67.50;;;;;;4148313;28;20127;-42
2022/06/30 11:42:33;;;;;;;2.70;0.20;;;33.00;69.10;;;;;;4146058;28;20141;-42
2022/06/30 11:44:54;;;;;;;0.35;0.20;;;32.70;71.90;;;;;;4149341;28;20056;-42
2022/06/30 11:47:16;;;;;;;0.35;0.20;;;32.90;72.60;;;;;;4156039;28;20508;-43
2022/06/30 11:49:44;;;;;;;;;;;32.80;71.50;;;;;;4149374;28;20056;-42
2022/06/30 11:52:31;;;;;;;0.38;0.20;;;32.40;70.70;;;;;;4158630;28;19964;-42
2022/06/30 11:54:57;;;;;;;0.50;0.20;;;33.20;71.30;;;;;;4153044;28;20124;-41
2022/06/30 11:57:19;;;;;;;2.90;0.20;;;32.70;67.60;;;;;;4145732;28;20084;-42
2022/06/30 11:59:51;;;;;;;1.55;0.30;;;32.70;71.30;;;;;;4144838;28;20061;-43
2022/06/30 12:02:14;;;;;;;3.63;0.28;;;32.70;69.00;;;;;;4145834;28;20052;-42
2022/06/30 12:04:38;;;;;;;1.40;0.20;;;33.00;71.10;;;;;;4145447;28;20049;-42
2022/06/30 12:07:03;;;;;;;1.25;0.25;;;33.50;69.40;;;;;;4146848;28;20056;-42
2022/06/30 12:09:24;;;;;;;1.10;0.25;;;33.40;71.80;;;;;;4146488;28;20041;-42
2022/06/30 12:11:46;;;;;;;1.20;0.20;;;32.90;67.30;;;;;;4149596;28;20504;-42
2022/06/30 12:14:08;;;;;;;1.75;0.20;;;32.40;67.00;;;;;;4149934;28;20133;-42
2022/06/30 12:16:29;;;;;;;1.25;0.20;;;32.30;67.80;;;;;;4149040;28;20157;-43
2022/06/30 12:18:50;;;;;;;0.80;0.30;;;31.90;67.80;;;;;;4139530;28;20108;-44
2022/06/30 12:21:11;;;;;;;0.30;0.25;;;32.30;67.40;;;;;;4146525;28;20487;-42
2022/06/30 12:23:33;;;;;;;1.52;0.20;;;33.10;70.20;;;;;;4145564;28;20068;-42
2022/06/30 12:25:54;;;;;;;0.22;0.20;;;33.30;69.30;;;;;;4158914;28;20051;-41
2022/06/30 12:28:15;;;;;;;0.30;0.20;;;32.80;65.10;;;;;;4145742;28;20056;-42
2022/06/30 12:30:37;;;;;;;0.50;0.20;;;32.80;65.20;;;;;;4145704;28;20045;-42
2022/06/30 12:33:00;;;;;;;1.30;0.20;;;32.70;65.50;;;;;;4145425;28;20121;-43
2022/06/30 12:35:25;;;;;;;0.20;0.20;;;33.00;65.80;;;;;;4145507;28;20057;-43
2022/06/30 12:37:48;;;;;;;0.20;0.20;;;33.30;67.40;;;;;;4145744;28;20092;-42
2022/06/30 12:40:11;;;;;;;0.40;0.20;;;33.40;64.60;;;;;;4147069;28;20125;-42